createdAt,value
2019-03-31T00:01:08.191Z,10.67
2019-03-31T00:03:29.989Z,10.63
2019-03-31T00:05:58.834Z,11.23
2019-03-31T00:08:28.415Z,8.67
2019-03-31T00:11:00.455Z,11.30
2019-03-31T00:13:26.121Z,9.47
2019-03-31T00:15:54.927Z,10.60
2019-03-31T00:18:23.807Z,10.00
2019-03-31T00:20:52.618Z,6.50
2019-03-31T00:23:21.467Z,9.07
2019-03-31T00:25:50.305Z,8.70
2019-03-31T00:28:19.149Z,8.60
2019-03-31T00:30:47.984Z,8.83
2019-03-31T00:33:16.821Z,10.80
2019-03-31T00:35:45.682Z,11.40
2019-03-31T00:38:14.534Z,9.43
2019-03-31T00:40:43.393Z,10.37
2019-03-31T00:43:12.221Z,9.40
2019-03-31T00:45:41.058Z,9.60
2019-03-31T00:48:09.900Z,11.23
2019-03-31T00:50:38.747Z,10.27
2019-03-31T00:53:07.587Z,9.67
2019-03-31T00:55:36.419Z,8.47
2019-03-31T00:58:06.008Z,9.03
2019-03-31T01:00:40.411Z,9.85
2019-03-31T01:03:09.952Z,7.90
2019-03-31T01:05:38.827Z,7.60
2019-03-31T01:08:07.619Z,8.00
2019-03-31T01:10:36.466Z,6.50
2019-03-31T01:13:05.286Z,9.83
2019-03-31T01:15:34.126Z,6.00
2019-03-31T01:18:02.954Z,6.53
2019-03-31T01:20:31.782Z,8.63
2019-03-31T01:23:00.629Z,13.03
2019-03-31T01:25:29.466Z,8.55
2019-03-31T01:27:58.307Z,8.97
2019-03-31T01:30:27.132Z,8.23
2019-03-31T01:32:56.559Z,9.47
2019-03-31T01:35:25.405Z,10.33
2019-03-31T01:37:54.242Z,9.03
2019-03-31T01:40:23.090Z,7.30
2019-03-31T01:42:51.931Z,7.73
2019-03-31T01:45:20.766Z,9.53
2019-03-31T01:47:49.605Z,9.33
2019-03-31T01:50:18.436Z,8.37
2019-03-31T01:52:47.264Z,6.93
2019-03-31T01:55:16.854Z,8.60
2019-03-31T01:57:45.682Z,8.97
2019-03-31T02:00:18.332Z,9.57
2019-03-31T02:02:47.914Z,7.60
2019-03-31T02:05:16.757Z,10.60
2019-03-31T02:07:45.598Z,9.93
2019-03-31T02:10:14.430Z,8.10
2019-03-31T02:12:43.300Z,10.73
2019-03-31T02:15:12.875Z,6.83
2019-03-31T02:17:41.718Z,8.50
2019-03-31T02:20:10.555Z,10.23
2019-03-31T02:22:39.390Z,9.17
2019-03-31T02:25:08.206Z,9.10
2019-03-31T02:27:37.050Z,7.40
2019-03-31T02:30:06.614Z,7.67
2019-03-31T02:32:35.444Z,10.03
2019-03-31T02:35:04.283Z,8.77
2019-03-31T02:37:33.128Z,8.97
2019-03-31T02:40:02.704Z,7.80
2019-03-31T02:42:31.538Z,8.77
2019-03-31T02:45:00.691Z,8.47
2019-03-31T02:47:29.205Z,9.17
2019-03-31T02:49:58.027Z,8.50
2019-03-31T02:52:26.870Z,8.37
2019-03-31T02:54:56.442Z,8.20
2019-03-31T02:57:25.272Z,9.53
2019-03-31T02:59:54.105Z,8.53
2019-03-31T03:02:40.150Z,8.77
2019-03-31T03:04:51.778Z,9.70
2019-03-31T03:07:20.608Z,11.80
2019-03-31T03:09:49.487Z,9.40
2019-03-31T03:12:18.279Z,9.33
2019-03-31T03:14:47.156Z,13.13
2019-03-31T03:17:15.958Z,8.70
2019-03-31T03:19:44.818Z,9.53
2019-03-31T03:22:13.673Z,9.43
2019-03-31T03:24:43.207Z,8.50
2019-03-31T03:27:12.049Z,11.03
2019-03-31T03:29:40.906Z,8.80
2019-03-31T03:32:09.736Z,9.83
2019-03-31T03:34:38.583Z,9.67
2019-03-31T03:37:07.407Z,8.47
2019-03-31T03:39:36.260Z,8.70
2019-03-31T03:42:05.077Z,9.47
2019-03-31T03:44:34.652Z,8.50
2019-03-31T03:47:03.487Z,11.33
2019-03-31T03:49:33.058Z,11.30
2019-03-31T03:52:01.889Z,9.67
2019-03-31T03:54:30.823Z,10.73
2019-03-31T03:57:00.333Z,9.77
2019-03-31T03:59:29.164Z,11.40
2019-03-31T04:01:58.742Z,9.03
2019-03-31T04:04:27.575Z,9.63
2019-03-31T04:06:56.421Z,9.23
2019-03-31T04:09:25.250Z,9.20
2019-03-31T04:11:54.095Z,9.80
2019-03-31T04:14:22.928Z,11.17
2019-03-31T04:16:51.773Z,9.73
2019-03-31T04:19:20.603Z,9.50
2019-03-31T04:21:49.443Z,9.53
2019-03-31T04:24:18.279Z,8.67
2019-03-31T04:26:47.138Z,8.70
2019-03-31T04:29:15.965Z,9.20
2019-03-31T04:31:44.789Z,8.77
2019-03-31T04:34:13.614Z,9.37
2019-03-31T04:36:42.502Z,7.50
2019-03-31T04:39:11.314Z,8.63
2019-03-31T04:41:40.146Z,8.70
2019-03-31T04:44:08.982Z,9.57
2019-03-31T04:46:38.552Z,8.47
2019-03-31T04:49:07.381Z,8.50
2019-03-31T04:51:36.220Z,8.77
2019-03-31T04:54:05.049Z,8.43
2019-03-31T04:56:34.628Z,8.10
2019-03-31T04:59:03.464Z,7.87
2019-03-31T05:01:32.312Z,8.27
2019-03-31T05:04:05.146Z,9.73
2019-03-31T05:06:30.724Z,10.33
2019-03-31T05:08:59.555Z,9.27
2019-03-31T05:11:28.393Z,8.33
2019-03-31T05:13:57.228Z,8.83
2019-03-31T05:16:26.052Z,9.37
2019-03-31T05:18:54.889Z,8.70
2019-03-31T05:21:24.458Z,9.70
2019-03-31T05:23:53.278Z,9.05
2019-03-31T05:26:22.888Z,9.10
2019-03-31T05:28:51.696Z,8.40
2019-03-31T05:31:20.528Z,9.10
2019-03-31T05:33:49.361Z,8.57
2019-03-31T05:36:18.303Z,9.30
2019-03-31T05:38:47.040Z,10.17
2019-03-31T05:41:16.614Z,9.10
2019-03-31T05:43:45.448Z,10.60
2019-03-31T05:46:14.282Z,9.70
2019-03-31T05:48:43.116Z,10.43
2019-03-31T05:51:12.685Z,11.00
2019-03-31T05:53:41.523Z,10.00
2019-03-31T05:56:10.384Z,9.40
2019-03-31T05:58:39.191Z,12.23
2019-03-31T06:01:08.019Z,11.00
2019-03-31T06:03:36.852Z,10.40
2019-03-31T06:06:05.690Z,10.90
2019-03-31T06:08:34.552Z,11.10
2019-03-31T06:11:04.126Z,11.30
2019-03-31T06:13:32.972Z,14.13
2019-03-31T06:16:01.795Z,12.87
2019-03-31T06:18:30.661Z,14.67
2019-03-31T06:20:59.479Z,13.07
2019-03-31T06:23:28.302Z,12.73
2019-03-31T06:25:57.877Z,12.37
2019-03-31T06:28:26.702Z,11.07
2019-03-31T06:30:55.536Z,12.20
2019-03-31T06:33:24.371Z,11.63
2019-03-31T06:35:53.200Z,12.17
2019-03-31T06:38:22.030Z,13.87
2019-03-31T06:40:50.876Z,13.97
2019-03-31T06:43:19.720Z,13.90
2019-03-31T06:45:49.332Z,12.53
2019-03-31T06:48:18.216Z,12.50
2019-03-31T06:50:47.013Z,13.20
2019-03-31T06:53:16.579Z,13.20
2019-03-31T06:55:45.400Z,13.50
2019-03-31T06:58:14.248Z,12.77
2019-03-31T07:00:43.076Z,11.20
2019-03-31T07:03:12.659Z,10.67
2019-03-31T07:05:42.098Z,12.13
2019-03-31T07:08:11.666Z,11.73
2019-03-31T07:10:40.496Z,11.15
2019-03-31T07:13:09.957Z,10.47
2019-03-31T07:15:38.785Z,12.17
2019-03-31T07:18:07.634Z,12.47
2019-03-31T07:20:36.463Z,12.03
2019-03-31T07:23:05.313Z,13.53
2019-03-31T07:25:37.022Z,12.47
2019-03-31T07:28:02.998Z,12.30
2019-03-31T07:30:31.831Z,12.30
2019-03-31T07:33:00.668Z,12.27
2019-03-31T07:35:29.508Z,14.13
2019-03-31T07:37:58.345Z,13.40
2019-03-31T07:40:27.620Z,14.57
2019-03-31T07:42:56.071Z,14.23
2019-03-31T07:45:24.856Z,13.80
2019-03-31T07:47:53.703Z,13.63
2019-03-31T07:50:22.542Z,13.40
2019-03-31T07:52:51.413Z,12.77
2019-03-31T07:55:20.989Z,13.03
2019-03-31T07:57:49.840Z,13.93
2019-03-31T08:00:20.499Z,13.97
2019-03-31T08:02:49.343Z,13.40
2019-03-31T08:05:32.122Z,13.50
2019-03-31T08:07:47.009Z,12.80
2019-03-31T08:10:15.880Z,12.23
2019-03-31T08:12:44.714Z,14.47
2019-03-31T08:15:13.544Z,12.87
2019-03-31T08:17:42.844Z,13.53
2019-03-31T08:20:12.024Z,13.67
2019-03-31T08:22:40.857Z,15.30
2019-03-31T08:25:09.703Z,12.77
2019-03-31T08:27:38.547Z,13.50
2019-03-31T08:30:07.405Z,12.80
2019-03-31T08:32:36.248Z,12.13
2019-03-31T08:35:06.062Z,13.23
2019-03-31T08:37:34.909Z,12.50
2019-03-31T08:40:04.505Z,12.67
2019-03-31T08:42:33.342Z,14.10
2019-03-31T08:45:02.195Z,13.98
2019-03-31T08:47:31.778Z,15.53
2019-03-31T08:50:02.251Z,14.40
2019-03-31T08:52:30.801Z,15.50
2019-03-31T08:54:59.645Z,15.00
2019-03-31T08:57:28.487Z,15.03
2019-03-31T08:59:58.084Z,13.97
2019-03-31T09:02:27.806Z,14.17
2019-03-31T09:04:57.397Z,15.15
2019-03-31T09:07:26.247Z,15.20
2019-03-31T09:09:55.087Z,14.07
2019-03-31T09:12:24.676Z,16.13
2019-03-31T09:14:53.536Z,16.33
2019-03-31T09:17:22.387Z,16.35
2019-03-31T09:19:51.261Z,15.40
2019-03-31T09:22:20.060Z,18.27
2019-03-31T09:24:49.640Z,19.93
2019-03-31T09:27:18.477Z,17.77
2019-03-31T09:29:47.312Z,18.47
2019-03-31T09:32:16.168Z,16.20
2019-03-31T09:34:45.007Z,16.93
2019-03-31T09:37:14.619Z,16.50
2019-03-31T09:39:43.512Z,18.83
2019-03-31T09:42:12.327Z,19.37
2019-03-31T09:44:41.171Z,16.53
2019-03-31T09:47:10.049Z,17.17
2019-03-31T09:49:38.903Z,19.80
2019-03-31T09:52:07.740Z,18.73
2019-03-31T09:54:36.613Z,19.57
2019-03-31T09:57:05.472Z,18.40
2019-03-31T09:59:34.321Z,18.67
2019-03-31T10:02:03.915Z,18.77
2019-03-31T10:04:32.776Z,18.03
2019-03-31T10:07:01.629Z,20.58
2019-03-31T10:09:30.499Z,21.57
2019-03-31T10:11:59.341Z,20.10
2019-03-31T10:14:28.184Z,21.37
2019-03-31T10:16:57.768Z,19.83
2019-03-31T10:19:26.625Z,18.93
2019-03-31T10:21:55.548Z,18.80
2019-03-31T10:24:24.327Z,19.93
2019-03-31T10:26:53.167Z,17.13
2019-03-31T10:29:22.016Z,19.90
2019-03-31T10:31:51.591Z,17.27
2019-03-31T10:34:20.443Z,18.62
2019-03-31T10:36:49.290Z,19.23
2019-03-31T10:39:18.145Z,17.70
2019-03-31T10:41:46.999Z,17.33
2019-03-31T10:44:16.585Z,16.20
2019-03-31T10:46:46.186Z,17.30
2019-03-31T10:49:15.136Z,17.60
2019-03-31T10:51:43.881Z,16.47
2019-03-31T10:54:13.475Z,18.70
2019-03-31T10:56:42.322Z,18.25
2019-03-31T10:59:11.164Z,16.50
2019-03-31T11:01:40.030Z,17.40
2019-03-31T11:04:08.874Z,18.43
2019-03-31T11:06:37.773Z,14.93
2019-03-31T11:09:06.630Z,17.97
2019-03-31T11:11:35.514Z,14.70
2019-03-31T11:14:04.329Z,16.43
2019-03-31T11:16:33.499Z,16.43
2019-03-31T11:19:02.330Z,14.93
2019-03-31T11:21:31.179Z,13.50
2019-03-31T11:24:00.040Z,12.77
2019-03-31T11:26:28.892Z,12.90
2019-03-31T11:28:57.745Z,20.73
2019-03-31T11:31:26.601Z,16.30
2019-03-31T11:33:56.181Z,14.17
2019-03-31T11:36:25.043Z,11.90
2019-03-31T11:38:53.885Z,12.10
2019-03-31T11:41:22.738Z,8.00
2019-03-31T11:43:53.173Z,9.93
2019-03-31T11:46:22.003Z,10.77
2019-03-31T11:48:50.858Z,11.13
2019-03-31T11:51:19.756Z,10.63
2019-03-31T11:53:48.581Z,12.45
2019-03-31T11:56:17.429Z,12.77
2019-03-31T11:58:46.271Z,10.40
2019-03-31T12:01:15.115Z,11.47
2019-03-31T12:03:43.970Z,11.10
2019-03-31T12:06:12.811Z,12.90
2019-03-31T12:08:41.637Z,11.17
2019-03-31T12:11:10.509Z,11.30
2019-03-31T12:13:39.335Z,9.43
2019-03-31T12:16:08.177Z,11.97
2019-03-31T12:18:37.047Z,11.03
2019-03-31T12:21:05.901Z,10.93
2019-03-31T12:23:34.741Z,10.23
2019-03-31T12:26:03.580Z,10.80
2019-03-31T12:28:32.415Z,9.70
2019-03-31T12:31:01.259Z,9.83
2019-03-31T12:33:30.126Z,10.77
2019-03-31T12:35:58.955Z,9.20
2019-03-31T12:38:28.605Z,6.47
2019-03-31T12:40:57.389Z,7.07
2019-03-31T12:43:26.221Z,5.90
2019-03-31T12:45:55.061Z,7.20
2019-03-31T12:48:23.899Z,6.30
2019-03-31T12:50:52.765Z,6.73
2019-03-31T12:53:21.596Z,6.47
2019-03-31T12:56:00.120Z,8.00
2019-03-31T12:58:19.268Z,7.67
2019-03-31T13:00:48.122Z,7.20
2019-03-31T13:03:16.962Z,9.27
2019-03-31T13:05:45.812Z,6.82
2019-03-31T13:08:15.391Z,6.43
2019-03-31T13:10:44.239Z,7.45
2019-03-31T13:13:13.235Z,8.00
2019-03-31T13:15:41.963Z,7.47
2019-03-31T13:18:10.800Z,6.75
2019-03-31T13:20:39.646Z,6.15
2019-03-31T13:23:08.483Z,5.78
2019-03-31T13:25:37.335Z,5.93
2019-03-31T13:28:06.232Z,5.00
2019-03-31T13:30:35.023Z,5.55
2019-03-31T13:33:03.876Z,5.30
2019-03-31T13:35:32.718Z,7.03
2019-03-31T13:38:11.117Z,6.17
2019-03-31T13:40:30.413Z,5.70
2019-03-31T13:42:59.996Z,5.50
2019-03-31T13:45:28.843Z,6.13
2019-03-31T13:47:58.800Z,5.43
2019-03-31T13:50:27.257Z,6.50
2019-03-31T13:52:56.107Z,4.60
2019-03-31T13:55:24.943Z,4.90
2019-03-31T13:57:54.735Z,4.70
2019-03-31T14:00:33.673Z,5.07
2019-03-31T14:03:02.491Z,6.53
2019-03-31T14:05:31.331Z,4.37
2019-03-31T14:08:00.171Z,4.03
2019-03-31T14:10:29.009Z,6.97
2019-03-31T14:12:57.866Z,4.40
2019-03-31T14:15:27.448Z,4.47
2019-03-31T14:17:56.299Z,4.40
2019-03-31T14:20:25.139Z,4.25
2019-03-31T14:22:54.723Z,5.60
2019-03-31T14:25:24.300Z,4.32
2019-03-31T14:27:53.148Z,5.18
2019-03-31T14:30:22.050Z,3.70
2019-03-31T14:32:51.428Z,4.40
2019-03-31T14:35:20.285Z,4.68
2019-03-31T14:37:49.157Z,5.95
2019-03-31T14:40:18.015Z,7.37
2019-03-31T14:42:46.862Z,3.85
2019-03-31T14:45:27.784Z,3.97
2019-03-31T14:47:56.620Z,4.22
2019-03-31T14:50:29.452Z,4.65
2019-03-31T14:52:58.287Z,4.60
2019-03-31T14:55:27.114Z,4.10
2019-03-31T14:57:55.951Z,4.85
2019-03-31T15:00:24.792Z,4.85
2019-03-31T15:02:54.379Z,4.18
2019-03-31T15:05:23.236Z,4.57
2019-03-31T15:07:52.073Z,3.75
2019-03-31T15:10:21.646Z,3.87
2019-03-31T15:12:50.482Z,4.28
2019-03-31T15:15:20.108Z,3.20
2019-03-31T15:17:48.966Z,3.37
2019-03-31T15:20:18.676Z,5.47
2019-03-31T15:22:51.329Z,3.95
2019-03-31T15:25:17.118Z,3.62
2019-03-31T15:27:45.959Z,4.87
2019-03-31T15:30:14.795Z,3.20
2019-03-31T15:32:43.639Z,3.60
2019-03-31T15:35:13.231Z,4.78
2019-03-31T15:37:42.075Z,4.72
2019-03-31T15:40:10.928Z,4.70
2019-03-31T15:42:39.803Z,4.60
2019-03-31T15:45:09.385Z,6.45
2019-03-31T15:47:38.237Z,5.30
2019-03-31T15:50:07.179Z,5.18
2019-03-31T15:52:35.945Z,4.80
2019-03-31T15:55:06.608Z,4.15
2019-03-31T15:57:36.207Z,3.72
2019-03-31T16:00:07.715Z,3.90
2019-03-31T16:02:36.566Z,5.00
2019-03-31T16:05:06.360Z,3.17
2019-03-31T16:07:35.272Z,3.45
2019-03-31T16:10:04.072Z,5.00
2019-03-31T16:12:32.925Z,3.03
2019-03-31T16:15:01.798Z,3.08
2019-03-31T16:17:30.638Z,4.82
2019-03-31T16:19:59.568Z,3.42
2019-03-31T16:22:28.395Z,2.85
2019-03-31T16:24:57.268Z,4.10
2019-03-31T16:27:26.103Z,3.50
2019-03-31T16:29:55.670Z,3.60
2019-03-31T16:32:24.505Z,4.65
2019-03-31T16:34:53.356Z,3.10
2019-03-31T16:37:22.200Z,4.53
2019-03-31T16:39:51.043Z,3.25
2019-03-31T16:42:19.901Z,3.30
2019-03-31T16:44:58.055Z,4.70
2019-03-31T16:47:17.605Z,3.37
2019-03-31T16:49:46.455Z,4.55
2019-03-31T16:52:15.291Z,3.75
2019-03-31T16:54:44.881Z,3.42
2019-03-31T16:57:13.737Z,4.30
2019-03-31T16:59:42.609Z,4.05
2019-03-31T17:02:11.453Z,4.05
2019-03-31T17:04:40.307Z,3.47
2019-03-31T17:07:09.163Z,5.25
2019-03-31T17:09:50.962Z,3.15
2019-03-31T17:12:06.861Z,5.20
2019-03-31T17:14:35.699Z,3.97
2019-03-31T17:17:04.548Z,6.45
2019-03-31T17:19:33.387Z,7.82
2019-03-31T17:22:02.975Z,6.72
2019-03-31T17:24:31.843Z,6.15
2019-03-31T17:27:00.679Z,8.77
2019-03-31T17:29:30.263Z,9.38
2019-03-31T17:31:59.123Z,9.02
2019-03-31T17:34:27.959Z,7.90
2019-03-31T17:36:57.549Z,15.60
2019-03-31T17:39:26.987Z,22.30
2019-03-31T17:41:55.847Z,23.65
2019-03-31T17:44:25.478Z,25.40
2019-03-31T17:46:54.295Z,29.00
2019-03-31T17:49:23.142Z,27.48
2019-03-31T17:51:52.016Z,27.63
2019-03-31T17:54:20.861Z,31.02
2019-03-31T17:56:49.724Z,28.10
2019-03-31T17:59:18.582Z,28.40
2019-03-31T18:01:48.022Z,29.77
2019-03-31T18:04:16.884Z,31.20
2019-03-31T18:06:45.715Z,34.17
2019-03-31T18:09:14.566Z,32.57
2019-03-31T18:11:44.146Z,35.73
2019-03-31T18:14:13.008Z,32.53
2019-03-31T18:16:41.867Z,34.08
2019-03-31T18:19:10.702Z,33.33
2019-03-31T18:21:39.549Z,30.17
2019-03-31T18:24:08.402Z,35.43
2019-03-31T18:26:37.272Z,33.07
2019-03-31T18:29:06.122Z,31.10
2019-03-31T18:31:34.971Z,29.37
2019-03-31T18:34:03.819Z,31.53
2019-03-31T18:36:37.047Z,31.67
2019-03-31T18:39:01.516Z,33.23
2019-03-31T18:41:30.412Z,34.23
2019-03-31T18:43:59.247Z,29.90
2019-03-31T18:46:29.369Z,34.07
2019-03-31T18:48:57.699Z,31.33
2019-03-31T18:51:26.596Z,30.40
2019-03-31T18:54:01.013Z,29.83
2019-03-31T18:56:30.771Z,32.97
2019-03-31T18:59:01.489Z,31.80
2019-03-31T19:01:33.282Z,32.80
2019-03-31T19:04:02.141Z,31.07
2019-03-31T19:06:32.942Z,30.20
2019-03-31T19:09:05.383Z,31.27
2019-03-31T19:11:40.515Z,31.13
2019-03-31T19:14:13.949Z,31.63
2019-03-31T19:16:43.921Z,31.52
2019-03-31T19:19:12.778Z,31.17
2019-03-31T19:21:42.553Z,30.10
2019-03-31T19:24:11.726Z,30.13
2019-03-31T19:26:48.515Z,30.67
2019-03-31T19:29:17.107Z,31.60
2019-03-31T19:31:46.618Z,31.73
2019-03-31T19:34:15.471Z,29.67
2019-03-31T19:36:50.579Z,29.27
2019-03-31T19:39:21.181Z,30.57
2019-03-31T19:41:55.652Z,31.97
2019-03-31T19:44:26.512Z,31.00
2019-03-31T19:46:56.280Z,32.10
2019-03-31T19:49:28.942Z,30.63
2019-03-31T19:51:57.824Z,32.87
2019-03-31T19:54:39.091Z,30.70
2019-03-31T19:57:12.916Z,31.40
2019-03-31T19:59:41.770Z,38.37
2019-03-31T20:02:10.617Z,32.63
2019-03-31T20:04:41.377Z,31.00
2019-03-31T20:07:16.427Z,34.17
2019-03-31T20:09:51.218Z,35.55
2019-03-31T20:12:20.071Z,32.27
2019-03-31T20:14:50.809Z,34.60
2019-03-31T20:17:21.547Z,34.87
2019-03-31T20:19:50.476Z,33.20
2019-03-31T20:22:23.131Z,32.97
2019-03-31T20:24:52.865Z,33.05
2019-03-31T20:27:21.768Z,31.70
2019-03-31T20:29:57.245Z,31.97
2019-03-31T20:32:31.550Z,31.00
2019-03-31T20:35:00.431Z,31.00
2019-03-31T20:37:35.669Z,29.97
2019-03-31T20:40:06.187Z,30.30
2019-03-31T20:42:39.833Z,32.73
2019-03-31T20:45:08.678Z,29.20
2019-03-31T20:47:38.272Z,27.33
2019-03-31T20:50:07.190Z,29.95
2019-03-31T20:52:36.802Z,27.63
2019-03-31T20:55:16.106Z,27.20
2019-03-31T20:57:34.500Z,28.03
2019-03-31T21:00:03.353Z,30.83
2019-03-31T21:02:32.938Z,26.93
2019-03-31T21:05:01.793Z,28.77
2019-03-31T21:07:30.626Z,29.73
2019-03-31T21:09:59.467Z,28.73
2019-03-31T21:12:28.304Z,27.70
2019-03-31T21:14:57.140Z,30.40
2019-03-31T21:17:25.988Z,28.33
2019-03-31T21:19:55.571Z,25.57
2019-03-31T21:22:24.402Z,25.50
2019-03-31T21:24:53.289Z,25.48
2019-03-31T21:27:22.875Z,22.93
2019-03-31T21:29:51.719Z,22.27
2019-03-31T21:32:20.557Z,25.37
2019-03-31T21:34:50.147Z,24.73
2019-03-31T21:37:18.986Z,24.37
2019-03-31T21:39:47.833Z,25.07
2019-03-31T21:42:16.690Z,25.83
2019-03-31T21:44:45.531Z,29.02
2019-03-31T21:47:14.417Z,27.40
2019-03-31T21:49:43.989Z,29.70
2019-03-31T21:52:12.828Z,26.27
2019-03-31T21:54:41.689Z,26.23
2019-03-31T21:57:10.551Z,28.70
2019-03-31T21:59:39.391Z,28.95
2019-03-31T22:02:08.237Z,28.60
2019-03-31T22:04:37.068Z,30.60
2019-03-31T22:07:05.916Z,27.77
2019-03-31T22:09:34.778Z,27.33
2019-03-31T22:12:03.627Z,28.85
2019-03-31T22:14:32.461Z,29.03
2019-03-31T22:17:01.305Z,29.37
2019-03-31T22:19:30.140Z,27.17
2019-03-31T22:21:58.977Z,30.80
2019-03-31T22:24:28.570Z,28.17
2019-03-31T22:26:57.425Z,31.87
2019-03-31T22:29:26.253Z,30.53
2019-03-31T22:31:55.104Z,31.03
2019-03-31T22:34:23.954Z,33.55
2019-03-31T22:36:53.535Z,31.77
2019-03-31T22:39:22.362Z,30.13
2019-03-31T22:41:51.209Z,32.33
2019-03-31T22:44:20.047Z,33.23
2019-03-31T22:46:54.482Z,35.58
2019-03-31T22:49:18.312Z,34.30
2019-03-31T22:51:47.898Z,35.25
2019-03-31T22:54:16.744Z,34.10
2019-03-31T22:56:45.599Z,37.88
2019-03-31T22:59:14.444Z,33.87
2019-03-31T23:01:43.290Z,31.53
2019-03-31T23:04:12.136Z,31.80
2019-03-31T23:06:40.983Z,31.50
2019-03-31T23:09:09.823Z,31.87
2019-03-31T23:11:38.704Z,35.30
2019-03-31T23:14:07.503Z,31.67
2019-03-31T23:16:37.082Z,30.87
2019-03-31T23:19:05.923Z,30.73
2019-03-31T23:21:34.765Z,29.50
2019-03-31T23:24:03.593Z,25.63
2019-03-31T23:26:32.440Z,28.87
2019-03-31T23:29:01.276Z,28.40
2019-03-31T23:31:30.129Z,28.40
2019-03-31T23:33:59.021Z,30.13
2019-03-31T23:36:27.870Z,34.80
2019-03-31T23:38:58.473Z,29.10
2019-03-31T23:41:25.560Z,34.13
2019-03-31T23:43:54.396Z,33.55
2019-03-31T23:46:23.232Z,28.50
2019-03-31T23:48:52.066Z,27.63
2019-03-31T23:51:20.935Z,25.27
2019-03-31T23:53:49.789Z,29.80
2019-03-31T23:56:18.628Z,29.00
2019-03-31T23:58:47.539Z,26.70
